sensor_id;sensor_type;location;lat;lon;timestamp;pressure;altitude;pressure_sealevel;temperature;humidity
54900;BME280;40801;41.924;25.562;2023-03-16T00:00:36;98411.63;;;10.23;52.92
54900;BME280;40801;41.924;25.562;2023-03-16T00:03:01;98405.72;;;10.30;52.67
54900;BME280;40801;41.924;25.562;2023-03-16T00:05:27;98407.41;;;10.43;52.05
54900;BME280;40801;41.924;25.562;2023-03-16T00:07:53;98412.22;;;10.29;53.22
54900;BME280;40801;41.924;25.562;2023-03-16T00:10:18;98413.53;;;10.22;53.09
54900;BME280;40801;41.924;25.562;2023-03-16T00:12:44;98411.97;;;10.21;53.15
54900;BME280;40801;41.924;25.562;2023-03-16T00:15:10;98411.19;;;10.21;53.36
54900;BME280;40801;41.924;25.562;2023-03-16T00:17:36;98402.75;;;10.22;52.90
54900;BME280;40801;41.924;25.562;2023-03-16T00:20:02;98412.44;;;10.23;53.07
54900;BME280;40801;41.924;25.562;2023-03-16T00:22:30;98414.94;;;10.29;53.13
54900;BME280;40801;41.924;25.562;2023-03-16T00:24:55;98423.00;;;10.29;52.92
54900;BME280;40801;41.924;25.562;2023-03-16T00:27:22;98421.38;;;10.36;52.29
54900;BME280;40801;41.924;25.562;2023-03-16T00:29:50;98420.72;;;10.39;52.79
54900;BME280;40801;41.924;25.562;2023-03-16T00:32:25;98425.47;;;10.42;52.18
54900;BME280;40801;41.924;25.562;2023-03-16T00:34:51;98427.00;;;10.52;51.80
54900;BME280;40801;41.924;25.562;2023-03-16T00:37:18;98416.22;;;10.52;51.70
54900;BME280;40801;41.924;25.562;2023-03-16T00:39:45;98410.63;;;10.57;50.99
54900;BME280;40801;41.924;25.562;2023-03-16T00:42:12;98415.34;;;10.60;50.61
54900;BME280;40801;41.924;25.562;2023-03-16T00:44:39;98421.47;;;10.48;50.99
54900;BME280;40801;41.924;25.562;2023-03-16T00:47:06;98417.34;;;10.51;50.38
54900;BME280;40801;41.924;25.562;2023-03-16T00:49:34;98424.97;;;10.49;50.24
54900;BME280;40801;41.924;25.562;2023-03-16T00:52:04;98415.97;;;10.36;50.83
54900;BME280;40801;41.924;25.562;2023-03-16T00:54:31;98413.25;;;10.45;50.23
54900;BME280;40801;41.924;25.562;2023-03-16T00:57:00;98414.97;;;10.49;49.86
54900;BME280;40801;41.924;25.562;2023-03-16T00:59:26;98402.81;;;10.43;50.08
54900;BME280;40801;41.924;25.562;2023-03-16T01:01:52;98401.06;;;10.39;50.16
54900;BME280;40801;41.924;25.562;2023-03-16T01:04:18;98407.88;;;10.45;49.95
54900;BME280;40801;41.924;25.562;2023-03-16T01:06:44;98397.75;;;10.42;49.95
54900;BME280;40801;41.924;25.562;2023-03-16T01:09:10;98398.69;;;10.37;50.41
54900;BME280;40801;41.924;25.562;2023-03-16T01:11:36;98404.00;;;10.25;50.57
54900;BME280;40801;41.924;25.562;2023-03-16T01:14:02;98407.81;;;10.24;50.57
54900;BME280;40801;41.924;25.562;2023-03-16T01:16:28;98411.81;;;10.09;50.86
54900;BME280;40801;41.924;25.562;2023-03-16T01:18:54;98407.56;;;10.08;51.03
54900;BME280;40801;41.924;25.562;2023-03-16T01:21:21;98404.53;;;10.10;50.87
54900;BME280;40801;41.924;25.562;2023-03-16T01:23:47;98409.19;;;10.01;51.67
54900;BME280;40801;41.924;25.562;2023-03-16T01:26:12;98413.31;;;9.98;51.79
54900;BME280;40801;41.924;25.562;2023-03-16T01:28:40;98415.41;;;9.92;51.76
54900;BME280;40801;41.924;25.562;2023-03-16T01:31:09;98415.50;;;10.05;51.31
54900;BME280;40801;41.924;25.562;2023-03-16T01:33:35;98415.34;;;10.01;51.87
54900;BME280;40801;41.924;25.562;2023-03-16T01:36:04;98417.22;;;10.09;51.62
54900;BME280;40801;41.924;25.562;2023-03-16T01:38:30;98411.50;;;10.11;51.30
54900;BME280;40801;41.924;25.562;2023-03-16T01:40:56;98420.69;;;10.10;51.79
54900;BME280;40801;41.924;25.562;2023-03-16T01:43:23;98424.56;;;10.00;52.30
54900;BME280;40801;41.924;25.562;2023-03-16T01:48:32;98418.19;;;10.05;52.09
54900;BME280;40801;41.924;25.562;2023-03-16T01:51:03;98435.47;;;10.04;51.89
54900;BME280;40801;41.924;25.562;2023-03-16T01:53:30;98429.63;;;10.02;51.76
54900;BME280;40801;41.924;25.562;2023-03-16T01:55:58;98432.75;;;10.12;51.38
54900;BME280;40801;41.924;25.562;2023-03-16T01:58:27;98431.31;;;10.15;51.42
54900;BME280;40801;41.924;25.562;2023-03-16T02:00:52;98442.88;;;10.15;51.94
54900;BME280;40801;41.924;25.562;2023-03-16T02:03:19;98449.53;;;10.18;51.45
54900;BME280;40801;41.924;25.562;2023-03-16T02:06:10;98446.19;;;10.21;52.34
54900;BME280;40801;41.924;25.562;2023-03-16T02:08:38;98451.25;;;10.22;51.75
54900;BME280;40801;41.924;25.562;2023-03-16T02:11:05;98451.09;;;10.19;51.79
54900;BME280;40801;41.924;25.562;2023-03-16T02:13:33;98451.25;;;10.22;52.27
54900;BME280;40801;41.924;25.562;2023-03-16T02:16:02;98449.63;;;10.30;52.05
54900;BME280;40801;41.924;25.562;2023-03-16T02:18:29;98442.59;;;10.38;52.06
54900;BME280;40801;41.924;25.562;2023-03-16T02:23:26;98450.22;;;10.36;52.75
54900;BME280;40801;41.924;25.562;2023-03-16T02:26:22;98447.84;;;10.43;52.44
54900;BME280;40801;41.924;25.562;2023-03-16T02:31:26;98464.13;;;10.46;52.60
54900;BME280;40801;41.924;25.562;2023-03-16T02:33:53;98462.22;;;10.47;52.47
54900;BME280;40801;41.924;25.562;2023-03-16T02:36:19;98469.22;;;10.48;52.29
54900;BME280;40801;41.924;25.562;2023-03-16T02:38:45;98475.72;;;10.47;52.84
54900;BME280;40801;41.924;25.562;2023-03-16T02:41:13;98478.91;;;10.40;52.95
54900;BME280;40801;41.924;25.562;2023-03-16T02:43:52;98485.00;;;10.29;54.26
54900;BME280;40801;41.924;25.562;2023-03-16T02:46:20;98482.28;;;10.29;53.47
54900;BME280;40801;41.924;25.562;2023-03-16T02:51:20;98477.09;;;10.23;53.86
54900;BME280;40801;41.924;25.562;2023-03-16T02:53:46;98486.84;;;10.37;53.16
54900;BME280;40801;41.924;25.562;2023-03-16T02:56:11;98490.97;;;10.43;53.52
54900;BME280;40801;41.924;25.562;2023-03-16T02:58:36;98485.00;;;10.29;54.18
54900;BME280;40801;41.924;25.562;2023-03-16T03:01:02;98490.25;;;10.16;54.82
54900;BME280;40801;41.924;25.562;2023-03-16T03:03:28;98490.09;;;10.21;54.92
54900;BME280;40801;41.924;25.562;2023-03-16T03:05:53;98501.03;;;10.25;54.73
54900;BME280;40801;41.924;25.562;2023-03-16T03:08:19;98500.31;;;10.37;54.36
54900;BME280;40801;41.924;25.562;2023-03-16T03:10:46;98503.81;;;10.37;54.06
54900;BME280;40801;41.924;25.562;2023-03-16T03:13:11;98511.25;;;10.40;54.29
54900;BME280;40801;41.924;25.562;2023-03-16T03:15:37;98517.59;;;10.44;54.25
54900;BME280;40801;41.924;25.562;2023-03-16T03:18:02;98509.19;;;10.46;54.23
54900;BME280;40801;41.924;25.562;2023-03-16T03:20:28;98521.56;;;10.38;54.66
54900;BME280;40801;41.924;25.562;2023-03-16T03:22:53;98518.41;;;10.36;54.96
54900;BME280;40801;41.924;25.562;2023-03-16T03:25:20;98522.78;;;10.49;54.36
54900;BME280;40801;41.924;25.562;2023-03-16T03:27:47;98528.66;;;10.51;54.36
54900;BME280;40801;41.924;25.562;2023-03-16T03:30:16;98528.50;;;10.48;54.57
54900;BME280;40801;41.924;25.562;2023-03-16T03:32:42;98535.34;;;10.45;54.89
54900;BME280;40801;41.924;25.562;2023-03-16T03:35:09;98539.63;;;10.46;54.58
54900;BME280;40801;41.924;25.562;2023-03-16T03:37:37;98538.81;;;10.46;54.91
54900;BME280;40801;41.924;25.562;2023-03-16T03:40:04;98535.53;;;10.32;55.66
54900;BME280;40801;41.924;25.562;2023-03-16T03:42:30;98549.00;;;10.32;55.90
54900;BME280;40801;41.924;25.562;2023-03-16T03:44:55;98546.13;;;10.37;55.29
54900;BME280;40801;41.924;25.562;2023-03-16T03:47:21;98551.53;;;10.37;55.63
54900;BME280;40801;41.924;25.562;2023-03-16T03:49:46;98552.63;;;10.44;55.33
54900;BME280;40801;41.924;25.562;2023-03-16T03:52:11;98553.94;;;10.30;56.03
54900;BME280;40801;41.924;25.562;2023-03-16T03:54:37;98554.06;;;10.33;56.28
54900;BME280;40801;41.924;25.562;2023-03-16T03:57:03;98552.53;;;10.23;56.71
54900;BME280;40801;41.924;25.562;2023-03-16T03:59:29;98547.25;;;10.36;56.75
54900;BME280;40801;41.924;25.562;2023-03-16T04:01:54;98555.88;;;10.20;56.93
54900;BME280;40801;41.924;25.562;2023-03-16T04:04:20;98554.88;;;10.34;56.14
54900;BME280;40801;41.924;25.562;2023-03-16T04:06:46;98563.41;;;10.36;56.16
54900;BME280;40801;41.924;25.562;2023-03-16T04:09:11;98574.56;;;10.26;56.67
54900;BME280;40801;41.924;25.562;2023-03-16T04:11:37;98574.88;;;10.24;56.68
54900;BME280;40801;41.924;25.562;2023-03-16T04:14:03;98578.19;;;10.30;56.68
54900;BME280;40801;41.924;25.562;2023-03-16T04:16:29;98588.03;;;10.26;57.23
54900;BME280;40801;41.924;25.562;2023-03-16T04:18:55;98588.69;;;10.22;56.72
54900;BME280;40801;41.924;25.562;2023-03-16T04:21:21;98592.00;;;10.19;57.28
54900;BME280;40801;41.924;25.562;2023-03-16T04:23:48;98595.00;;;10.18;56.99
54900;BME280;40801;41.924;25.562;2023-03-16T04:26:14;98600.25;;;10.06;57.07
54900;BME280;40801;41.924;25.562;2023-03-16T04:28:39;98597.22;;;10.16;57.00
54900;BME280;40801;41.924;25.562;2023-03-16T04:31:07;98607.53;;;10.14;57.15
54900;BME280;40801;41.924;25.562;2023-03-16T04:33:35;98606.09;;;10.16;57.12
54900;BME280;40801;41.924;25.562;2023-03-16T04:36:01;98614.03;;;10.13;57.19
54900;BME280;40801;41.924;25.562;2023-03-16T04:38:31;98625.31;;;9.89;58.70
54900;BME280;40801;41.924;25.562;2023-03-16T04:41:01;98611.50;;;9.99;57.58
54900;BME280;40801;41.924;25.562;2023-03-16T04:43:27;98614.84;;;9.96;57.53
54900;BME280;40801;41.924;25.562;2023-03-16T04:45:53;98623.56;;;9.76;59.10
54900;BME280;40801;41.924;25.562;2023-03-16T04:48:18;98626.72;;;9.95;58.25
54900;BME280;40801;41.924;25.562;2023-03-16T04:50:44;98628.47;;;9.74;58.95
54900;BME280;40801;41.924;25.562;2023-03-16T04:53:09;98634.03;;;9.77;58.82
54900;BME280;40801;41.924;25.562;2023-03-16T04:55:35;98633.06;;;9.82;58.44
54900;BME280;40801;41.924;25.562;2023-03-16T04:58:00;98641.16;;;9.90;58.26
54900;BME280;40801;41.924;25.562;2023-03-16T05:00:26;98645.13;;;9.93;58.10
54900;BME280;40801;41.924;25.562;2023-03-16T05:02:52;98644.63;;;9.91;58.50
54900;BME280;40801;41.924;25.562;2023-03-16T05:05:17;98649.38;;;9.94;58.03
54900;BME280;40801;41.924;25.562;2023-03-16T05:07:43;98658.25;;;9.69;59.29
54900;BME280;40801;41.924;25.562;2023-03-16T05:10:14;98653.69;;;9.86;58.20
54900;BME280;40801;41.924;25.562;2023-03-16T05:12:40;98657.81;;;9.84;58.80
54900;BME280;40801;41.924;25.562;2023-03-16T05:15:07;98654.47;;;9.87;57.98
54900;BME280;40801;41.924;25.562;2023-03-16T05:17:32;98663.19;;;9.92;57.70
54900;BME280;40801;41.924;25.562;2023-03-16T05:19:58;98667.78;;;9.83;58.13
54900;BME280;40801;41.924;25.562;2023-03-16T05:22:24;98673.47;;;9.73;58.50
54900;BME280;40801;41.924;25.562;2023-03-16T05:24:50;98673.63;;;9.85;58.20
54900;BME280;40801;41.924;25.562;2023-03-16T05:27:15;98681.38;;;9.70;58.18
54900;BME280;40801;41.924;25.562;2023-03-16T05:29:41;98685.97;;;9.60;58.47
54900;BME280;40801;41.924;25.562;2023-03-16T05:32:10;98688.03;;;9.55;58.02
54900;BME280;40801;41.924;25.562;2023-03-16T05:34:36;98690.41;;;9.65;57.92
54900;BME280;40801;41.924;25.562;2023-03-16T05:37:01;98696.25;;;9.67;58.01
54900;BME280;40801;41.924;25.562;2023-03-16T05:39:28;98692.31;;;9.73;57.56
54900;BME280;40801;41.924;25.562;2023-03-16T05:41:55;98698.16;;;9.58;57.69
54900;BME280;40801;41.924;25.562;2023-03-16T05:44:21;98704.34;;;9.67;56.96
54900;BME280;40801;41.924;25.562;2023-03-16T05:46:47;98704.66;;;9.57;57.42
54900;BME280;40801;41.924;25.562;2023-03-16T05:49:12;98705.22;;;9.37;58.35
54900;BME280;40801;41.924;25.562;2023-03-16T05:51:37;98713.06;;;9.64;57.64
54900;BME280;40801;41.924;25.562;2023-03-16T05:54:03;98715.09;;;9.58;57.77
54900;BME280;40801;41.924;25.562;2023-03-16T05:56:29;98715.53;;;9.43;58.19
54900;BME280;40801;41.924;25.562;2023-03-16T05:58:55;98727.59;;;9.54;57.37
54900;BME280;40801;41.924;25.562;2023-03-16T06:01:21;98724.28;;;9.66;56.99
54900;BME280;40801;41.924;25.562;2023-03-16T06:03:47;98728.22;;;9.51;57.49
54900;BME280;40801;41.924;25.562;2023-03-16T06:06:14;98729.22;;;9.16;58.22
54900;BME280;40801;41.924;25.562;2023-03-16T06:08:40;98742.28;;;9.40;57.69
54900;BME280;40801;41.924;25.562;2023-03-16T06:11:05;98732.59;;;9.30;57.81
54900;BME280;40801;41.924;25.562;2023-03-16T06:13:30;98732.94;;;9.46;56.81
54900;BME280;40801;41.924;25.562;2023-03-16T06:15:56;98739.41;;;9.27;57.84
54900;BME280;40801;41.924;25.562;2023-03-16T06:18:21;98747.81;;;9.43;57.29
54900;BME280;40801;41.924;25.562;2023-03-16T06:20:47;98756.91;;;9.56;57.05
54900;BME280;40801;41.924;25.562;2023-03-16T06:23:12;98750.44;;;9.66;56.85
54900;BME280;40801;41.924;25.562;2023-03-16T06:25:38;98759.31;;;9.75;56.63
54900;BME280;40801;41.924;25.562;2023-03-16T06:28:04;98758.03;;;9.72;56.44
54900;BME280;40801;41.924;25.562;2023-03-16T06:30:30;98766.75;;;9.69;57.10
54900;BME280;40801;41.924;25.562;2023-03-16T06:32:55;98759.41;;;9.52;57.43
54900;BME280;40801;41.924;25.562;2023-03-16T06:35:21;98759.38;;;9.44;57.18
54900;BME280;40801;41.924;25.562;2023-03-16T06:37:47;98778.53;;;9.42;56.89
54900;BME280;40801;41.924;25.562;2023-03-16T06:40:12;98776.31;;;9.44;57.76
54900;BME280;40801;41.924;25.562;2023-03-16T06:42:38;98784.13;;;9.54;57.09
54900;BME280;40801;41.924;25.562;2023-03-16T06:45:04;98780.34;;;9.55;56.98
54900;BME280;40801;41.924;25.562;2023-03-16T06:47:29;98788.56;;;9.59;57.02
54900;BME280;40801;41.924;25.562;2023-03-16T06:49:55;98789.22;;;9.73;56.75
54900;BME280;40801;41.924;25.562;2023-03-16T06:52:21;98797.00;;;9.75;56.00
54900;BME280;40801;41.924;25.562;2023-03-16T06:54:46;98790.03;;;9.74;56.26
54900;BME280;40801;41.924;25.562;2023-03-16T06:57:12;98805.38;;;9.65;56.63
54900;BME280;40801;41.924;25.562;2023-03-16T06:59:38;98809.34;;;9.76;56.26
54900;BME280;40801;41.924;25.562;2023-03-16T07:02:03;98813.47;;;9.82;55.34
54900;BME280;40801;41.924;25.562;2023-03-16T07:04:29;98805.38;;;9.65;55.94
54900;BME280;40801;41.924;25.562;2023-03-16T07:06:54;98818.50;;;9.57;55.99
54900;BME280;40801;41.924;25.562;2023-03-16T07:09:19;98818.34;;;9.62;55.76
54900;BME280;40801;41.924;25.562;2023-03-16T07:11:46;98823.75;;;9.62;56.06
54900;BME280;40801;41.924;25.562;2023-03-16T07:14:11;98813.47;;;9.73;55.08
54900;BME280;40801;41.924;25.562;2023-03-16T07:16:36;98827.44;;;9.84;54.78
54900;BME280;40801;41.924;25.562;2023-03-16T07:19:02;98829.59;;;9.65;55.24
54900;BME280;40801;41.924;25.562;2023-03-16T07:21:27;98829.84;;;9.46;55.34
54900;BME280;40801;41.924;25.562;2023-03-16T07:23:53;98833.50;;;9.50;55.40
54900;BME280;40801;41.924;25.562;2023-03-16T07:26:19;98837.19;;;9.62;55.13
54900;BME280;40801;41.924;25.562;2023-03-16T07:28:45;98832.47;;;9.68;54.73
54900;BME280;40801;41.924;25.562;2023-03-16T07:31:10;98838.75;;;9.55;55.39
54900;BME280;40801;41.924;25.562;2023-03-16T07:33:36;98839.91;;;9.71;54.65
54900;BME280;40801;41.924;25.562;2023-03-16T07:36:02;98845.06;;;9.50;54.89
54900;BME280;40801;41.924;25.562;2023-03-16T07:38:29;98850.34;;;9.64;55.00
54900;BME280;40801;41.924;25.562;2023-03-16T07:40:54;98847.69;;;9.73;54.46
54900;BME280;40801;41.924;25.562;2023-03-16T07:43:20;98863.16;;;9.58;55.24
54900;BME280;40801;41.924;25.562;2023-03-16T07:45:49;98860.38;;;9.41;55.86
54900;BME280;40801;41.924;25.562;2023-03-16T07:48:15;98861.59;;;9.66;55.40
54900;BME280;40801;41.924;25.562;2023-03-16T07:50:41;98852.22;;;9.55;55.64
54900;BME280;40801;41.924;25.562;2023-03-16T07:53:06;98861.38;;;9.54;55.98
54900;BME280;40801;41.924;25.562;2023-03-16T07:55:32;98865.59;;;9.77;55.80
54900;BME280;40801;41.924;25.562;2023-03-16T07:58:00;98860.13;;;10.00;55.64
54900;BME280;40801;41.924;25.562;2023-03-16T08:00:26;98872.78;;;9.90;55.72
54900;BME280;40801;41.924;25.562;2023-03-16T08:02:51;98864.38;;;9.83;55.97
54900;BME280;40801;41.924;25.562;2023-03-16T08:05:18;98871.03;;;9.94;55.91
54900;BME280;40801;41.924;25.562;2023-03-16T08:07:43;98864.53;;;9.96;55.62
54900;BME280;40801;41.924;25.562;2023-03-16T08:10:10;98874.53;;;10.04;55.33
54900;BME280;40801;41.924;25.562;2023-03-16T08:12:35;98869.88;;;9.78;56.59
54900;BME280;40801;41.924;25.562;2023-03-16T08:15:01;98869.91;;;9.87;56.47
54900;BME280;40801;41.924;25.562;2023-03-16T08:17:26;98877.50;;;9.85;56.60
54900;BME280;40801;41.924;25.562;2023-03-16T08:19:52;98880.06;;;9.90;56.60
54900;BME280;40801;41.924;25.562;2023-03-16T08:22:17;98874.28;;;9.74;56.39
54900;BME280;40801;41.924;25.562;2023-03-16T08:24:43;98881.25;;;9.75;56.12
54900;BME280;40801;41.924;25.562;2023-03-16T08:27:08;98882.47;;;10.09;56.23
54900;BME280;40801;41.924;25.562;2023-03-16T08:29:33;98877.00;;;10.22;55.82
54900;BME280;40801;41.924;25.562;2023-03-16T08:31:59;98880.13;;;10.16;54.88
54900;BME280;40801;41.924;25.562;2023-03-16T08:34:25;98889.16;;;10.20;55.13
54900;BME280;40801;41.924;25.562;2023-03-16T08:36:51;98888.59;;;9.83;55.42
54900;BME280;40801;41.924;25.562;2023-03-16T08:39:16;98888.69;;;10.18;54.83
54900;BME280;40801;41.924;25.562;2023-03-16T08:41:42;98901.16;;;10.05;54.70
54900;BME280;40801;41.924;25.562;2023-03-16T08:44:10;98902.75;;;10.06;54.54
54900;BME280;40801;41.924;25.562;2023-03-16T08:46:37;98886.84;;;10.36;54.08
54900;BME280;40801;41.924;25.562;2023-03-16T08:49:03;98893.50;;;10.38;52.81
54900;BME280;40801;41.924;25.562;2023-03-16T08:51:29;98901.56;;;10.21;53.66
54900;BME280;40801;41.924;25.562;2023-03-16T08:53:55;98896.81;;;10.35;53.58
54900;BME280;40801;41.924;25.562;2023-03-16T08:56:20;98894.28;;;10.39;53.18
54900;BME280;40801;41.924;25.562;2023-03-16T08:58:46;98904.44;;;10.33;53.29
54900;BME280;40801;41.924;25.562;2023-03-16T09:01:13;98903.84;;;10.53;52.61
54900;BME280;40801;41.924;25.562;2023-03-16T09:03:39;98898.75;;;10.52;52.24
54900;BME280;40801;41.924;25.562;2023-03-16T09:06:07;98904.75;;;10.32;52.47
54900;BME280;40801;41.924;25.562;2023-03-16T09:08:35;98907.63;;;10.44;52.86
54900;BME280;40801;41.924;25.562;2023-03-16T09:11:05;98916.84;;;10.03;53.17
54900;BME280;40801;41.924;25.562;2023-03-16T09:13:32;98900.78;;;10.38;52.57
54900;BME280;40801;41.924;25.562;2023-03-16T09:15:58;98916.03;;;10.60;52.17
54900;BME280;40801;41.924;25.562;2023-03-16T09:18:24;98916.69;;;10.65;52.19
54900;BME280;40801;41.924;25.562;2023-03-16T09:20:52;98916.06;;;10.94;52.12
54900;BME280;40801;41.924;25.562;2023-03-16T09:23:21;98917.97;;;11.11;51.76
54900;BME280;40801;41.924;25.562;2023-03-16T09:25:47;98923.03;;;10.69;52.51
54900;BME280;40801;41.924;25.562;2023-03-16T09:28:12;98928.44;;;10.95;52.13
54900;BME280;40801;41.924;25.562;2023-03-16T09:30:38;98924.59;;;11.39;51.16
54900;BME280;40801;41.924;25.562;2023-03-16T09:33:03;98923.41;;;11.66;50.78
54900;BME280;40801;41.924;25.562;2023-03-16T09:35:29;98926.16;;;11.40;51.66
54900;BME280;40801;41.924;25.562;2023-03-16T09:37:55;98930.94;;;11.35;51.45
54900;BME280;40801;41.924;25.562;2023-03-16T09:40:24;98939.03;;;11.35;51.38
54900;BME280;40801;41.924;25.562;2023-03-16T09:43:24;98940.47;;;11.41;51.51
54900;BME280;40801;41.924;25.562;2023-03-16T09:48:40;98942.50;;;11.53;50.39
54900;BME280;40801;41.924;25.562;2023-03-16T09:54:01;98949.53;;;11.28;51.87
54900;BME280;40801;41.924;25.562;2023-03-16T09:56:34;98950.50;;;11.14;51.51
54900;BME280;40801;41.924;25.562;2023-03-16T09:59:09;98946.84;;;11.28;50.61
54900;BME280;40801;41.924;25.562;2023-03-16T10:07:20;98949.44;;;11.71;49.29
54900;BME280;40801;41.924;25.562;2023-03-16T10:09:57;98957.06;;;11.86;49.84
54900;BME280;40801;41.924;25.562;2023-03-16T10:12:31;98950.59;;;12.08;49.72
54900;BME280;40801;41.924;25.562;2023-03-16T10:15:08;98956.47;;;12.10;49.22
54900;BME280;40801;41.924;25.562;2023-03-16T10:18:17;98946.53;;;12.31;48.35
54900;BME280;40801;41.924;25.562;2023-03-16T10:20:44;98955.41;;;12.32;48.73
54900;BME280;40801;41.924;25.562;2023-03-16T10:23:31;98954.53;;;12.19;46.51
54900;BME280;40801;41.924;25.562;2023-03-16T10:26:00;98955.72;;;12.01;47.56
54900;BME280;40801;41.924;25.562;2023-03-16T10:28:31;98947.94;;;11.99;48.41
54900;BME280;40801;41.924;25.562;2023-03-16T10:30:59;98958.28;;;11.97;47.52
54900;BME280;40801;41.924;25.562;2023-03-16T10:33:33;98958.06;;;12.11;47.40
54900;BME280;40801;41.924;25.562;2023-03-16T10:36:11;98953.16;;;12.04;47.27
54900;BME280;40801;41.924;25.562;2023-03-16T10:38:52;98956.34;;;12.06;47.15
54900;BME280;40801;41.924;25.562;2023-03-16T10:41:22;98962.34;;;12.12;47.13
54900;BME280;40801;41.924;25.562;2023-03-16T10:44:20;98961.53;;;12.20;46.56
54900;BME280;40801;41.924;25.562;2023-03-16T10:46:47;98961.34;;;12.25;46.77
54900;BME280;40801;41.924;25.562;2023-03-16T10:51:56;98955.09;;;12.33;45.82
54900;BME280;40801;41.924;25.562;2023-03-16T10:54:33;98959.81;;;12.45;44.98
54900;BME280;40801;41.924;25.562;2023-03-16T10:57:11;98955.78;;;12.22;45.02
54900;BME280;40801;41.924;25.562;2023-03-16T10:59:37;98957.78;;;12.04;45.65
54900;BME280;40801;41.924;25.562;2023-03-16T11:02:24;98951.19;;;12.22;44.74
54900;BME280;40801;41.924;25.562;2023-03-16T11:04:54;98943.16;;;12.05;45.49
54900;BME280;40801;41.924;25.562;2023-03-16T11:07:21;98952.09;;;11.97;45.37
54900;BME280;40801;41.924;25.562;2023-03-16T11:09:50;98946.44;;;12.10;45.17
54900;BME280;40801;41.924;25.562;2023-03-16T11:12:25;98937.75;;;12.05;45.79
54900;BME280;40801;41.924;25.562;2023-03-16T11:14:51;98947.63;;;12.30;45.11
54900;BME280;40801;41.924;25.562;2023-03-16T11:17:33;98928.03;;;12.04;44.65
54900;BME280;40801;41.924;25.562;2023-03-16T11:20:03;98935.22;;;12.00;45.22
54900;BME280;40801;41.924;25.562;2023-03-16T11:22:37;98943.22;;;11.88;45.50
54900;BME280;40801;41.924;25.562;2023-03-16T11:33:10;98935.75;;;12.23;46.03
54900;BME280;40801;41.924;25.562;2023-03-16T11:35:42;98942.16;;;12.39;46.05
54900;BME280;40801;41.924;25.562;2023-03-16T11:38:17;98934.81;;;12.69;45.48
54900;BME280;40801;41.924;25.562;2023-03-16T11:46:22;98935.28;;;12.71;45.24
54900;BME280;40801;41.924;25.562;2023-03-16T11:52:00;98944.16;;;13.01;44.78
54900;BME280;40801;41.924;25.562;2023-03-16T11:54:40;98943.28;;;13.30;44.81
54900;BME280;40801;41.924;25.562;2023-03-16T12:00:07;98943.50;;;13.70;43.77
54900;BME280;40801;41.924;25.562;2023-03-16T12:03:24;98935.88;;;14.09;42.18
54900;BME280;40801;41.924;25.562;2023-03-16T12:15:24;98939.56;;;13.80;42.35
54900;BME280;40801;41.924;25.562;2023-03-16T12:17:41;98947.91;;;13.75;43.26
54900;BME280;40801;41.924;25.562;2023-03-16T12:20:15;98954.44;;;13.28;44.13
54900;BME280;40801;41.924;25.562;2023-03-16T12:22:47;98952.50;;;13.29;43.99
54900;BME280;40801;41.924;25.562;2023-03-16T12:25:18;98954.59;;;13.44;44.99
54900;BME280;40801;41.924;25.562;2023-03-16T12:27:48;98955.31;;;13.20;45.16
54900;BME280;40801;41.924;25.562;2023-03-16T12:38:52;98982.56;;;12.44;51.30
54900;BME280;40801;41.924;25.562;2023-03-16T12:44:42;98982.50;;;12.53;49.37
54900;BME280;40801;41.924;25.562;2023-03-16T12:47:30;98974.53;;;12.56;49.80
54900;BME280;40801;41.924;25.562;2023-03-16T12:50:10;98986.94;;;12.57;51.14
54900;BME280;40801;41.924;25.562;2023-03-16T12:55:28;98990.91;;;12.60;54.89
54900;BME280;40801;41.924;25.562;2023-03-16T12:58:06;98998.81;;;12.44;53.67
54900;BME280;40801;41.924;25.562;2023-03-16T13:00:35;99001.59;;;12.56;54.32
54900;BME280;40801;41.924;25.562;2023-03-16T13:03:03;99006.19;;;12.26;55.81
54900;BME280;40801;41.924;25.562;2023-03-16T13:05:34;99007.91;;;12.31;55.68
54900;BME280;40801;41.924;25.562;2023-03-16T13:10:38;99020.25;;;12.02;57.21
54900;BME280;40801;41.924;25.562;2023-03-16T13:13:14;99017.72;;;11.97;59.20
54900;BME280;40801;41.924;25.562;2023-03-16T13:15:44;99021.69;;;12.00;59.58
54900;BME280;40801;41.924;25.562;2023-03-16T13:20:58;99036.38;;;11.64;61.12
54900;BME280;40801;41.924;25.562;2023-03-16T13:23:53;99038.91;;;11.61;59.83
54900;BME280;40801;41.924;25.562;2023-03-16T13:26:29;99037.78;;;11.53;60.81
54900;BME280;40801;41.924;25.562;2023-03-16T13:29:09;99036.84;;;11.49;60.09
54900;BME280;40801;41.924;25.562;2023-03-16T13:31:43;99043.53;;;11.34;59.97
54900;BME280;40801;41.924;25.562;2023-03-16T13:34:13;99054.63;;;11.24;60.42
54900;BME280;40801;41.924;25.562;2023-03-16T13:36:40;99053.38;;;11.13;60.30
54900;BME280;40801;41.924;25.562;2023-03-16T13:41:39;99066.94;;;10.73;62.79
54900;BME280;40801;41.924;25.562;2023-03-16T13:44:12;99065.53;;;10.84;63.14
54900;BME280;40801;41.924;25.562;2023-03-16T13:46:39;99058.56;;;10.83;62.69
54900;BME280;40801;41.924;25.562;2023-03-16T13:49:04;99060.63;;;10.86;62.54
54900;BME280;40801;41.924;25.562;2023-03-16T13:51:33;99060.16;;;10.93;61.87
54900;BME280;40801;41.924;25.562;2023-03-16T13:54:04;99063.31;;;10.95;62.30
54900;BME280;40801;41.924;25.562;2023-03-16T13:56:31;99066.16;;;10.73;63.40
54900;BME280;40801;41.924;25.562;2023-03-16T13:58:57;99077.13;;;10.85;62.45
54900;BME280;40801;41.924;25.562;2023-03-16T14:01:25;99078.06;;;10.80;62.56
54900;BME280;40801;41.924;25.562;2023-03-16T14:03:54;99072.84;;;10.84;62.53
54900;BME280;40801;41.924;25.562;2023-03-16T14:06:22;99076.41;;;10.62;62.55
54900;BME280;40801;41.924;25.562;2023-03-16T14:08:50;99083.56;;;10.67;63.01
54900;BME280;40801;41.924;25.562;2023-03-16T14:11:18;99081.47;;;10.55;63.49
54900;BME280;40801;41.924;25.562;2023-03-16T14:13:49;99088.66;;;10.37;64.13